Main page
METAR-TAF:

METAR-TAF

Airports :

Gran Canaria Airport

Gran Canaria, Spain

latitude: 27-56N, longitude: 015-23W, elevation: 23 m

Current weather observation

The report was made 29 minutes ago, at 14:00 UTC
Wind 15 kt from the North/Northeast
Temperature 22°C
Humidity 57%
Pressure 1016 hPa
Visibility 10 km or more
Scattered clouds at a height of 4000 ft

METAR: GCLP 141400Z 03015KT 9999 SCT040 22/13 Q1016 NOSIG

Time: 14:29 (14:29 UTC)

Forecast

The report was made 6 hours and 29 minutes ago, at 08:00 UTC
Forecast valid from 14 at 09 UTC to 15 at 09 UTC
Wind 15 kt from the North/Northeast
Visibility 10 km or more
Scattered clouds at a height of 3500 ft
Probability 30% :
Temporary
from 15 at 05 UTC to 15 at 09 UTC
Wind 5 kt from the Southwest

TAF: GCLP 140800Z 1409/1509 02015KT 9999 SCT035 TX22/1413Z TN16/1506Z PROB30 TEMPO 1505/1509 22005KT

Weather observations and forecasts of more than 4000 airports (METAR and TAF reports).

The available stations are represented by yellow and red dots on the map.

Hover mouse over dot to see the name of the station.

Then click to see weather observations and forecasts.

To change the map : click on the green buttons with a black cross to zoom in, on the green button with a dash to zoom out, or on the green arrows for adjacent maps.


METAR-TAF: